sensor_id;sensor_type;location;lat;lon;timestamp;temperature;humidity
47805;DHT22;33568;45.286;9.900;2022-08-21T00:00:26;28.50;74.90
47805;DHT22;33568;45.286;9.900;2022-08-21T00:02:59;28.50;75.00
47805;DHT22;33568;45.286;9.900;2022-08-21T00:05:28;28.50;75.00
47805;DHT22;33568;45.286;9.900;2022-08-21T00:07:56;28.40;75.10
47805;DHT22;33568;45.286;9.900;2022-08-21T00:10:26;28.50;75.40
47805;DHT22;33568;45.286;9.900;2022-08-21T00:12:52;28.50;75.20
47805;DHT22;33568;45.286;9.900;2022-08-21T00:15:24;28.50;75.10
47805;DHT22;33568;45.286;9.900;2022-08-21T00:17:55;28.50;74.90
47805;DHT22;33568;45.286;9.900;2022-08-21T00:20:22;28.50;75.10
47805;DHT22;33568;45.286;9.900;2022-08-21T00:22:50;28.40;75.10
47805;DHT22;33568;45.286;9.900;2022-08-21T00:25:18;28.40;75.10
47805;DHT22;33568;45.286;9.900;2022-08-21T00:27:45;28.50;74.90
47805;DHT22;33568;45.286;9.900;2022-08-21T00:30:15;28.40;75.00
47805;DHT22;33568;45.286;9.900;2022-08-21T00:32:42;28.40;75.20
47805;DHT22;33568;45.286;9.900;2022-08-21T00:35:13;28.30;75.40
47805;DHT22;33568;45.286;9.900;2022-08-21T00:37:40;28.30;75.40
47805;DHT22;33568;45.286;9.900;2022-08-21T00:40:13;28.30;75.50
47805;DHT22;33568;45.286;9.900;2022-08-21T00:42:40;28.40;75.40
47805;DHT22;33568;45.286;9.900;2022-08-21T00:45:07;28.30;75.30
47805;DHT22;33568;45.286;9.900;2022-08-21T00:47:34;28.30;75.40
47805;DHT22;33568;45.286;9.900;2022-08-21T00:50:01;28.30;75.60
47805;DHT22;33568;45.286;9.900;2022-08-21T00:52:30;28.30;75.60
47805;DHT22;33568;45.286;9.900;2022-08-21T00:54:59;28.30;75.70
47805;DHT22;33568;45.286;9.900;2022-08-21T00:57:29;28.20;75.70
47805;DHT22;33568;45.286;9.900;2022-08-21T00:59:58;28.20;75.90
47805;DHT22;33568;45.286;9.900;2022-08-21T01:02:26;28.20;75.90
47805;DHT22;33568;45.286;9.900;2022-08-21T01:04:53;28.20;75.90
47805;DHT22;33568;45.286;9.900;2022-08-21T01:07:20;28.20;76.10
47805;DHT22;33568;45.286;9.900;2022-08-21T01:09:47;28.10;76.30
47805;DHT22;33568;45.286;9.900;2022-08-21T01:12:14;28.10;76.30
47805;DHT22;33568;45.286;9.900;2022-08-21T01:14:41;28.00;76.40
47805;DHT22;33568;45.286;9.900;2022-08-21T01:17:15;28.00;76.50
47805;DHT22;33568;45.286;9.900;2022-08-21T01:19:42;28.00;76.50
47805;DHT22;33568;45.286;9.900;2022-08-21T01:22:09;27.90;76.70
47805;DHT22;33568;45.286;9.900;2022-08-21T01:24:35;27.90;76.70
47805;DHT22;33568;45.286;9.900;2022-08-21T01:27:02;27.90;76.50
47805;DHT22;33568;45.286;9.900;2022-08-21T01:29:38;27.90;76.80
47805;DHT22;33568;45.286;9.900;2022-08-21T01:32:08;27.90;76.60
47805;DHT22;33568;45.286;9.900;2022-08-21T01:34:38;27.80;77.00
47805;DHT22;33568;45.286;9.900;2022-08-21T01:37:06;27.90;77.10
47805;DHT22;33568;45.286;9.900;2022-08-21T01:39:33;27.90;77.10
47805;DHT22;33568;45.286;9.900;2022-08-21T01:42:03;27.80;77.10
47805;DHT22;33568;45.286;9.900;2022-08-21T01:44:29;27.80;77.20
47805;DHT22;33568;45.286;9.900;2022-08-21T01:46:58;27.80;77.30
47805;DHT22;33568;45.286;9.900;2022-08-21T01:49:25;27.90;77.10
47805;DHT22;33568;45.286;9.900;2022-08-21T01:51:51;27.90;77.00
47805;DHT22;33568;45.286;9.900;2022-08-21T01:54:18;27.90;76.90
47805;DHT22;33568;45.286;9.900;2022-08-21T01:56:48;28.00;76.80
47805;DHT22;33568;45.286;9.900;2022-08-21T01:59:16;28.00;76.60
47805;DHT22;33568;45.286;9.900;2022-08-21T02:01:42;27.90;76.70
47805;DHT22;33568;45.286;9.900;2022-08-21T02:04:10;27.90;76.70
47805;DHT22;33568;45.286;9.900;2022-08-21T02:06:36;28.00;76.60
47805;DHT22;33568;45.286;9.900;2022-08-21T02:09:04;28.00;76.40
47805;DHT22;33568;45.286;9.900;2022-08-21T02:11:34;28.00;77.10
47805;DHT22;33568;45.286;9.900;2022-08-21T02:14:00;28.00;76.40
47805;DHT22;33568;45.286;9.900;2022-08-21T02:16:27;27.90;76.50
47805;DHT22;33568;45.286;9.900;2022-08-21T02:18:53;28.00;76.60
47805;DHT22;33568;45.286;9.900;2022-08-21T02:21:20;28.00;76.40
47805;DHT22;33568;45.286;9.900;2022-08-21T02:23:46;28.00;76.30
47805;DHT22;33568;45.286;9.900;2022-08-21T02:26:13;28.00;76.40
47805;DHT22;33568;45.286;9.900;2022-08-21T02:28:39;27.90;76.40
47805;DHT22;33568;45.286;9.900;2022-08-21T02:31:06;27.80;76.70
47805;DHT22;33568;45.286;9.900;2022-08-21T02:33:33;27.70;76.80
47805;DHT22;33568;45.286;9.900;2022-08-21T02:36:00;27.70;77.00
47805;DHT22;33568;45.286;9.900;2022-08-21T02:38:29;27.60;77.00
47805;DHT22;33568;45.286;9.900;2022-08-21T02:40:57;27.60;77.30
47805;DHT22;33568;45.286;9.900;2022-08-21T02:43:26;27.60;77.60
47805;DHT22;33568;45.286;9.900;2022-08-21T02:45:53;27.50;77.60
47805;DHT22;33568;45.286;9.900;2022-08-21T02:48:23;27.50;77.60
47805;DHT22;33568;45.286;9.900;2022-08-21T02:51:04;27.50;77.70
47805;DHT22;33568;45.286;9.900;2022-08-21T02:53:32;27.40;77.50
47805;DHT22;33568;45.286;9.900;2022-08-21T02:56:03;27.40;77.90
47805;DHT22;33568;45.286;9.900;2022-08-21T02:58:33;27.40;78.10
47805;DHT22;33568;45.286;9.900;2022-08-21T03:01:01;27.40;78.20
47805;DHT22;33568;45.286;9.900;2022-08-21T03:03:28;27.40;78.30
47805;DHT22;33568;45.286;9.900;2022-08-21T03:05:55;27.30;78.30
47805;DHT22;33568;45.286;9.900;2022-08-21T03:08:22;27.30;78.50
47805;DHT22;33568;45.286;9.900;2022-08-21T03:10:50;27.30;78.50
47805;DHT22;33568;45.286;9.900;2022-08-21T03:13:18;27.30;78.70
47805;DHT22;33568;45.286;9.900;2022-08-21T03:15:47;27.20;78.70
47805;DHT22;33568;45.286;9.900;2022-08-21T03:18:14;27.20;78.80
47805;DHT22;33568;45.286;9.900;2022-08-21T03:20:41;27.20;79.00
47805;DHT22;33568;45.286;9.900;2022-08-21T03:23:08;27.20;79.10
47805;DHT22;33568;45.286;9.900;2022-08-21T03:25:35;27.20;79.10
47805;DHT22;33568;45.286;9.900;2022-08-21T03:28:03;27.20;79.10
47805;DHT22;33568;45.286;9.900;2022-08-21T03:30:30;27.10;79.10
47805;DHT22;33568;45.286;9.900;2022-08-21T03:32:58;27.10;79.30
47805;DHT22;33568;45.286;9.900;2022-08-21T03:35:26;27.00;79.40
47805;DHT22;33568;45.286;9.900;2022-08-21T03:37:53;27.00;79.60
47805;DHT22;33568;45.286;9.900;2022-08-21T03:40:21;27.10;79.60
47805;DHT22;33568;45.286;9.900;2022-08-21T03:42:48;27.00;79.30
47805;DHT22;33568;45.286;9.900;2022-08-21T03:45:16;27.00;79.50
47805;DHT22;33568;45.286;9.900;2022-08-21T03:47:57;27.00;79.60
47805;DHT22;33568;45.286;9.900;2022-08-21T03:50:31;26.80;79.80
47805;DHT22;33568;45.286;9.900;2022-08-21T03:52:59;26.80;79.80
47805;DHT22;33568;45.286;9.900;2022-08-21T03:55:27;26.80;80.10
47805;DHT22;33568;45.286;9.900;2022-08-21T03:57:54;26.80;80.20
47805;DHT22;33568;45.286;9.900;2022-08-21T04:00:21;26.80;80.20
47805;DHT22;33568;45.286;9.900;2022-08-21T04:02:47;26.80;80.30
47805;DHT22;33568;45.286;9.900;2022-08-21T04:05:16;26.70;80.40
47805;DHT22;33568;45.286;9.900;2022-08-21T04:08:01;26.70;80.40
47805;DHT22;33568;45.286;9.900;2022-08-21T04:10:29;26.70;80.20
47805;DHT22;33568;45.286;9.900;2022-08-21T04:12:57;26.60;80.30
47805;DHT22;33568;45.286;9.900;2022-08-21T04:15:25;26.60;80.50
47805;DHT22;33568;45.286;9.900;2022-08-21T04:17:52;26.60;80.70
47805;DHT22;33568;45.286;9.900;2022-08-21T04:20:20;26.60;80.90
47805;DHT22;33568;45.286;9.900;2022-08-21T04:22:48;26.60;81.00
47805;DHT22;33568;45.286;9.900;2022-08-21T04:25:17;26.60;81.00
47805;DHT22;33568;45.286;9.900;2022-08-21T04:27:44;26.60;80.70
47805;DHT22;33568;45.286;9.900;2022-08-21T04:30:12;26.60;80.70
47805;DHT22;33568;45.286;9.900;2022-08-21T04:32:46;26.60;80.60
47805;DHT22;33568;45.286;9.900;2022-08-21T04:35:15;26.60;80.60
47805;DHT22;33568;45.286;9.900;2022-08-21T04:37:42;26.50;80.90
47805;DHT22;33568;45.286;9.900;2022-08-21T04:40:11;26.50;81.10
47805;DHT22;33568;45.286;9.900;2022-08-21T04:42:50;26.50;81.30
47805;DHT22;33568;45.286;9.900;2022-08-21T04:45:33;26.40;81.20
47805;DHT22;33568;45.286;9.900;2022-08-21T04:48:02;26.40;80.90
47805;DHT22;33568;45.286;9.900;2022-08-21T04:50:36;26.50;81.40
47805;DHT22;33568;45.286;9.900;2022-08-21T04:53:10;26.50;81.00
47805;DHT22;33568;45.286;9.900;2022-08-21T04:55:38;26.60;81.20
47805;DHT22;33568;45.286;9.900;2022-08-21T04:58:06;26.60;81.00
47805;DHT22;33568;45.286;9.900;2022-08-21T05:00:36;26.60;81.00
47805;DHT22;33568;45.286;9.900;2022-08-21T05:03:04;26.60;81.00
47805;DHT22;33568;45.286;9.900;2022-08-21T05:05:33;26.60;80.80
47805;DHT22;33568;45.286;9.900;2022-08-21T05:08:01;26.60;80.50
47805;DHT22;33568;45.286;9.900;2022-08-21T05:10:31;26.60;80.50
47805;DHT22;33568;45.286;9.900;2022-08-21T05:12:58;26.60;80.20
47805;DHT22;33568;45.286;9.900;2022-08-21T05:15:28;26.60;80.10
47805;DHT22;33568;45.286;9.900;2022-08-21T05:17:56;26.60;80.30
47805;DHT22;33568;45.286;9.900;2022-08-21T05:20:22;26.60;80.40
47805;DHT22;33568;45.286;9.900;2022-08-21T05:22:49;26.50;80.30
47805;DHT22;33568;45.286;9.900;2022-08-21T05:25:16;26.50;80.50
47805;DHT22;33568;45.286;9.900;2022-08-21T05:27:43;26.50;80.80
47805;DHT22;33568;45.286;9.900;2022-08-21T05:30:10;26.50;80.60
47805;DHT22;33568;45.286;9.900;2022-08-21T05:32:36;26.60;80.60
47805;DHT22;33568;45.286;9.900;2022-08-21T05:35:04;26.60;80.60
47805;DHT22;33568;45.286;9.900;2022-08-21T05:37:31;26.70;80.60
47805;DHT22;33568;45.286;9.900;2022-08-21T05:39:59;26.80;80.40
47805;DHT22;33568;45.286;9.900;2022-08-21T05:42:26;26.90;80.20
47805;DHT22;33568;45.286;9.900;2022-08-21T05:44:52;27.10;79.90
47805;DHT22;33568;45.286;9.900;2022-08-21T05:47:19;27.20;79.50
47805;DHT22;33568;45.286;9.900;2022-08-21T05:49:45;27.40;79.20
47805;DHT22;33568;45.286;9.900;2022-08-21T05:52:11;27.40;78.60
47805;DHT22;33568;45.286;9.900;2022-08-21T05:54:38;27.60;78.10
47805;DHT22;33568;45.286;9.900;2022-08-21T05:57:04;27.50;77.90
47805;DHT22;33568;45.286;9.900;2022-08-21T05:59:30;27.60;78.50
47805;DHT22;33568;45.286;9.900;2022-08-21T06:01:57;27.60;77.80
47805;DHT22;33568;45.286;9.900;2022-08-21T06:04:23;27.60;77.80
47805;DHT22;33568;45.286;9.900;2022-08-21T06:06:50;27.70;77.60
47805;DHT22;33568;45.286;9.900;2022-08-21T06:09:16;27.70;77.50
47805;DHT22;33568;45.286;9.900;2022-08-21T06:11:43;27.70;77.50
47805;DHT22;33568;45.286;9.900;2022-08-21T06:14:13;27.70;77.40
47805;DHT22;33568;45.286;9.900;2022-08-21T06:16:40;27.70;77.30
47805;DHT22;33568;45.286;9.900;2022-08-21T06:19:06;27.80;77.20
47805;DHT22;33568;45.286;9.900;2022-08-21T06:21:34;27.80;77.10
47805;DHT22;33568;45.286;9.900;2022-08-21T06:24:00;27.40;77.50
47805;DHT22;33568;45.286;9.900;2022-08-21T06:26:26;27.30;78.30
47805;DHT22;33568;45.286;9.900;2022-08-21T06:28:54;27.40;78.50
47805;DHT22;33568;45.286;9.900;2022-08-21T06:31:23;27.50;78.10
47805;DHT22;33568;45.286;9.900;2022-08-21T06:33:51;27.50;77.70
47805;DHT22;33568;45.286;9.900;2022-08-21T06:36:19;27.60;77.80
47805;DHT22;33568;45.286;9.900;2022-08-21T06:38:47;27.40;78.00
47805;DHT22;33568;45.286;9.900;2022-08-21T06:41:14;27.50;77.90
47805;DHT22;33568;45.286;9.900;2022-08-21T06:43:40;27.60;77.70
47805;DHT22;33568;45.286;9.900;2022-08-21T06:46:07;27.70;77.50
47805;DHT22;33568;45.286;9.900;2022-08-21T06:48:34;27.70;76.90
47805;DHT22;33568;45.286;9.900;2022-08-21T06:51:01;27.70;76.50
47805;DHT22;33568;45.286;9.900;2022-08-21T06:53:28;27.70;76.40
47805;DHT22;33568;45.286;9.900;2022-08-21T06:55:56;27.70;76.20
47805;DHT22;33568;45.286;9.900;2022-08-21T06:58:23;27.70;76.30
47805;DHT22;33568;45.286;9.900;2022-08-21T07:00:50;27.70;76.20
47805;DHT22;33568;45.286;9.900;2022-08-21T07:03:26;27.70;76.40
47805;DHT22;33568;45.286;9.900;2022-08-21T07:05:54;27.70;76.40
47805;DHT22;33568;45.286;9.900;2022-08-21T07:08:21;27.70;76.30
47805;DHT22;33568;45.286;9.900;2022-08-21T07:10:48;27.70;76.10
47805;DHT22;33568;45.286;9.900;2022-08-21T07:13:16;27.70;76.10
47805;DHT22;33568;45.286;9.900;2022-08-21T07:15:43;27.60;75.90
47805;DHT22;33568;45.286;9.900;2022-08-21T07:18:11;27.50;75.70
47805;DHT22;33568;45.286;9.900;2022-08-21T07:20:39;27.50;75.50
47805;DHT22;33568;45.286;9.900;2022-08-21T07:23:09;27.60;75.30
47805;DHT22;33568;45.286;9.900;2022-08-21T07:25:36;27.70;75.00
47805;DHT22;33568;45.286;9.900;2022-08-21T07:28:03;27.70;75.00
47805;DHT22;33568;45.286;9.900;2022-08-21T07:30:29;27.80;74.80
47805;DHT22;33568;45.286;9.900;2022-08-21T07:32:56;28.00;74.70
47805;DHT22;33568;45.286;9.900;2022-08-21T07:35:23;28.10;74.30
47805;DHT22;33568;45.286;9.900;2022-08-21T07:37:49;28.30;73.80
47805;DHT22;33568;45.286;9.900;2022-08-21T07:40:17;28.40;73.10
47805;DHT22;33568;45.286;9.900;2022-08-21T07:42:47;28.60;72.30
47805;DHT22;33568;45.286;9.900;2022-08-21T07:45:19;28.70;71.50
47805;DHT22;33568;45.286;9.900;2022-08-21T07:47:49;28.60;70.90
47805;DHT22;33568;45.286;9.900;2022-08-21T07:50:16;28.70;70.60
47805;DHT22;33568;45.286;9.900;2022-08-21T07:52:42;28.70;70.00
47805;DHT22;33568;45.286;9.900;2022-08-21T07:55:11;28.90;69.10
47805;DHT22;33568;45.286;9.900;2022-08-21T07:57:42;29.00;67.60
47805;DHT22;33568;45.286;9.900;2022-08-21T08:00:11;29.10;66.40
47805;DHT22;33568;45.286;9.900;2022-08-21T08:02:39;29.20;65.50
47805;DHT22;33568;45.286;9.900;2022-08-21T08:05:08;29.30;65.00
47805;DHT22;33568;45.286;9.900;2022-08-21T08:07:35;29.30;64.80
47805;DHT22;33568;45.286;9.900;2022-08-21T08:10:03;29.30;65.10
47805;DHT22;33568;45.286;9.900;2022-08-21T08:12:33;29.30;65.10
47805;DHT22;33568;45.286;9.900;2022-08-21T08:15:00;29.40;65.30
47805;DHT22;33568;45.286;9.900;2022-08-21T08:17:28;29.40;65.10
47805;DHT22;33568;45.286;9.900;2022-08-21T08:19:54;29.50;65.10
47805;DHT22;33568;45.286;9.900;2022-08-21T08:22:22;29.60;64.30
47805;DHT22;33568;45.286;9.900;2022-08-21T08:24:51;29.60;63.70
47805;DHT22;33568;45.286;9.900;2022-08-21T08:27:22;29.70;63.30
47805;DHT22;33568;45.286;9.900;2022-08-21T08:29:48;29.80;62.90
47805;DHT22;33568;45.286;9.900;2022-08-21T08:32:15;29.90;62.40
47805;DHT22;33568;45.286;9.900;2022-08-21T08:34:41;30.10;62.00
47805;DHT22;33568;45.286;9.900;2022-08-21T08:37:09;30.10;61.10
47805;DHT22;33568;45.286;9.900;2022-08-21T08:39:36;30.10;61.10
47805;DHT22;33568;45.286;9.900;2022-08-21T08:42:30;30.10;61.00
47805;DHT22;33568;45.286;9.900;2022-08-21T08:45:10;30.10;60.10
47805;DHT22;33568;45.286;9.900;2022-08-21T08:47:43;30.30;59.30
47805;DHT22;33568;45.286;9.900;2022-08-21T08:52:45;30.50;59.50
47805;DHT22;33568;45.286;9.900;2022-08-21T08:55:26;30.50;59.50
47805;DHT22;33568;45.286;9.900;2022-08-21T08:57:55;30.60;59.10
47805;DHT22;33568;45.286;9.900;2022-08-21T09:00:23;30.70;59.20
47805;DHT22;33568;45.286;9.900;2022-08-21T09:02:56;30.70;59.20
47805;DHT22;33568;45.286;9.900;2022-08-21T09:05:27;30.70;58.90
47805;DHT22;33568;45.286;9.900;2022-08-21T09:10:24;31.00;59.10
47805;DHT22;33568;45.286;9.900;2022-08-21T09:13:19;31.10;59.20
47805;DHT22;33568;45.286;9.900;2022-08-21T09:18:37;31.40;58.60
47805;DHT22;33568;45.286;9.900;2022-08-21T09:21:36;31.70;58.20
47805;DHT22;33568;45.286;9.900;2022-08-21T09:24:18;31.70;57.40
47805;DHT22;33568;45.286;9.900;2022-08-21T09:29:23;31.80;57.30
47805;DHT22;33568;45.286;9.900;2022-08-21T09:31:53;31.70;57.20
47805;DHT22;33568;45.286;9.900;2022-08-21T09:34:30;31.60;57.40
47805;DHT22;33568;45.286;9.900;2022-08-21T09:37:00;31.70;56.60
47805;DHT22;33568;45.286;9.900;2022-08-21T09:39:37;31.50;57.10
47805;DHT22;33568;45.286;9.900;2022-08-21T09:42:08;31.30;56.80
47805;DHT22;33568;45.286;9.900;2022-08-21T09:44:37;31.40;57.30
47805;DHT22;33568;45.286;9.900;2022-08-21T09:47:07;31.50;57.10
47805;DHT22;33568;45.286;9.900;2022-08-21T09:49:36;31.50;57.30
47805;DHT22;33568;45.286;9.900;2022-08-21T09:52:15;31.50;57.20
47805;DHT22;33568;45.286;9.900;2022-08-21T09:54:45;31.50;56.90
47805;DHT22;33568;45.286;9.900;2022-08-21T09:57:21;31.40;57.10
47805;DHT22;33568;45.286;9.900;2022-08-21T10:00:27;31.60;56.60
47805;DHT22;33568;45.286;9.900;2022-08-21T10:03:17;31.90;56.60
47805;DHT22;33568;45.286;9.900;2022-08-21T10:06:00;32.30;57.30
47805;DHT22;33568;45.286;9.900;2022-08-21T10:08:28;32.60;56.00
47805;DHT22;33568;45.286;9.900;2022-08-21T10:11:01;32.40;56.10
47805;DHT22;33568;45.286;9.900;2022-08-21T10:17:12;32.70;54.50
47805;DHT22;33568;45.286;9.900;2022-08-21T10:22:43;33.00;54.10
47805;DHT22;33568;45.286;9.900;2022-08-21T10:25:40;32.90;53.00
47805;DHT22;33568;45.286;9.900;2022-08-21T10:28:27;33.00;53.80
47805;DHT22;33568;45.286;9.900;2022-08-21T10:36:33;33.30;54.40
47805;DHT22;33568;45.286;9.900;2022-08-21T10:47:22;33.80;52.80
47805;DHT22;33568;45.286;9.900;2022-08-21T10:50:04;33.70;51.50
47805;DHT22;33568;45.286;9.900;2022-08-21T10:55:27;33.40;53.00
47805;DHT22;33568;45.286;9.900;2022-08-21T10:57:59;33.30;52.20
47805;DHT22;33568;45.286;9.900;2022-08-21T11:00:33;33.40;52.60
47805;DHT22;33568;45.286;9.900;2022-08-21T11:03:51;33.50;52.40
47805;DHT22;33568;45.286;9.900;2022-08-21T11:06:00;33.50;51.70
47805;DHT22;33568;45.286;9.900;2022-08-21T11:08:35;33.50;51.90
47805;DHT22;33568;45.286;9.900;2022-08-21T11:11:12;33.60;52.40
47805;DHT22;33568;45.286;9.900;2022-08-21T11:13:49;33.70;52.90
47805;DHT22;33568;45.286;9.900;2022-08-21T11:19:00;33.80;51.90
47805;DHT22;33568;45.286;9.900;2022-08-21T11:21:36;33.60;52.70
47805;DHT22;33568;45.286;9.900;2022-08-21T11:27:13;33.50;52.00
47805;DHT22;33568;45.286;9.900;2022-08-21T11:29:43;33.50;52.70
47805;DHT22;33568;45.286;9.900;2022-08-21T11:35:10;33.70;51.80
47805;DHT22;33568;45.286;9.900;2022-08-21T11:49:02;34.00;51.50
47805;DHT22;33568;45.286;9.900;2022-08-21T11:54:49;34.30;52.20
47805;DHT22;33568;45.286;9.900;2022-08-21T11:57:36;34.60;53.10
47805;DHT22;33568;45.286;9.900;2022-08-21T12:00:11;34.60;51.80
47805;DHT22;33568;45.286;9.900;2022-08-21T12:02:49;34.70;52.70
47805;DHT22;33568;45.286;9.900;2022-08-21T12:05:42;34.80;52.70
47805;DHT22;33568;45.286;9.900;2022-08-21T12:08:31;34.90;51.50
47805;DHT22;33568;45.286;9.900;2022-08-21T12:11:06;34.90;50.40
47805;DHT22;33568;45.286;9.900;2022-08-21T12:13:39;34.90;50.80
47805;DHT22;33568;45.286;9.900;2022-08-21T12:16:15;34.70;50.20
47805;DHT22;33568;45.286;9.900;2022-08-21T12:19:07;34.60;50.50
47805;DHT22;33568;45.286;9.900;2022-08-21T12:21:47;34.80;51.00
47805;DHT22;33568;45.286;9.900;2022-08-21T12:26:52;34.90;50.60
47805;DHT22;33568;45.286;9.900;2022-08-21T12:29:26;34.80;51.80
47805;DHT22;33568;45.286;9.900;2022-08-21T12:32:28;34.80;50.60
47805;DHT22;33568;45.286;9.900;2022-08-21T12:35:06;34.90;51.80
47805;DHT22;33568;45.286;9.900;2022-08-21T12:37:43;35.00;51.30
47805;DHT22;33568;45.286;9.900;2022-08-21T12:42:50;35.20;50.90
47805;DHT22;33568;45.286;9.900;2022-08-21T12:45:31;35.10;50.10
47805;DHT22;33568;45.286;9.900;2022-08-21T12:48:06;34.90;49.50
47805;DHT22;33568;45.286;9.900;2022-08-21T12:50:48;35.00;50.30
47805;DHT22;33568;45.286;9.900;2022-08-21T12:53:30;35.10;50.30
47805;DHT22;33568;45.286;9.900;2022-08-21T12:56:07;35.20;49.20
47805;DHT22;33568;45.286;9.900;2022-08-21T12:58:35;35.10;48.90
47805;DHT22;33568;45.286;9.900;2022-08-21T13:01:11;35.00;49.20
47805;DHT22;33568;45.286;9.900;2022-08-21T13:03:40;35.00;48.70
47805;DHT22;33568;45.286;9.900;2022-08-21T13:06:07;35.00;48.80
47805;DHT22;33568;45.286;9.900;2022-08-21T13:08:39;35.00;48.90
47805;DHT22;33568;45.286;9.900;2022-08-21T13:11:07;35.00;48.70
47805;DHT22;33568;45.286;9.900;2022-08-21T13:13:34;35.00;48.80
47805;DHT22;33568;45.286;9.900;2022-08-21T13:16:05;35.10;49.00
47805;DHT22;33568;45.286;9.900;2022-08-21T13:18:34;35.20;48.90
47805;DHT22;33568;45.286;9.900;2022-08-21T13:21:12;35.30;48.50
47805;DHT22;33568;45.286;9.900;2022-08-21T13:23:40;35.30;48.10
47805;DHT22;33568;45.286;9.900;2022-08-21T13:26:21;35.20;48.50
47805;DHT22;33568;45.286;9.900;2022-08-21T13:28:49;35.10;47.90
47805;DHT22;33568;45.286;9.900;2022-08-21T13:31:20;35.20;48.40
47805;DHT22;33568;45.286;9.900;2022-08-21T13:33:49;35.20;48.20
47805;DHT22;33568;45.286;9.900;2022-08-21T13:36:46;35.20;48.20
47805;DHT22;33568;45.286;9.900;2022-08-21T13:39:17;35.20;47.60
47805;DHT22;33568;45.286;9.900;2022-08-21T13:41:47;35.30;48.10
47805;DHT22;33568;45.286;9.900;2022-08-21T13:44:24;35.30;48.10
47805;DHT22;33568;45.286;9.900;2022-08-21T13:46:59;35.30;48.20
47805;DHT22;33568;45.286;9.900;2022-08-21T13:49:32;35.40;48.40
47805;DHT22;33568;45.286;9.900;2022-08-21T13:52:00;35.30;48.60
47805;DHT22;33568;45.286;9.900;2022-08-21T13:54:39;35.30;48.50
47805;DHT22;33568;45.286;9.900;2022-08-21T13:57:30;35.30;48.60
47805;DHT22;33568;45.286;9.900;2022-08-21T14:00:17;35.20;48.20
47805;DHT22;33568;45.286;9.900;2022-08-21T14:02:47;35.20;47.90
47805;DHT22;33568;45.286;9.900;2022-08-21T14:05:26;35.10;47.80
47805;DHT22;33568;45.286;9.900;2022-08-21T14:08:03;35.20;46.60
47805;DHT22;33568;45.286;9.900;2022-08-21T14:10:29;35.10;47.40
47805;DHT22;33568;45.286;9.900;2022-08-21T14:13:02;35.10;47.30
47805;DHT22;33568;45.286;9.900;2022-08-21T14:15:33;35.10;47.50
47805;DHT22;33568;45.286;9.900;2022-08-21T14:20:36;35.00;47.70
47805;DHT22;33568;45.286;9.900;2022-08-21T14:23:02;35.10;47.40
47805;DHT22;33568;45.286;9.900;2022-08-21T14:25:41;34.90;47.30
47805;DHT22;33568;45.286;9.900;2022-08-21T14:30:42;35.10;47.20
47805;DHT22;33568;45.286;9.900;2022-08-21T14:33:11;35.00;47.30
47805;DHT22;33568;45.286;9.900;2022-08-21T14:35:38;35.10;47.20
47805;DHT22;33568;45.286;9.900;2022-08-21T14:38:20;35.00;47.20
47805;DHT22;33568;45.286;9.900;2022-08-21T14:40:49;35.10;47.00
47805;DHT22;33568;45.286;9.900;2022-08-21T14:43:16;35.10;46.80
47805;DHT22;33568;45.286;9.900;2022-08-21T14:45:44;35.20;46.70
47805;DHT22;33568;45.286;9.900;2022-08-21T14:48:11;35.20;46.50
47805;DHT22;33568;45.286;9.900;2022-08-21T14:50:39;35.30;46.70
47805;DHT22;33568;45.286;9.900;2022-08-21T14:53:06;35.20;46.30
47805;DHT22;33568;45.286;9.900;2022-08-21T14:55:34;35.30;46.50
47805;DHT22;33568;45.286;9.900;2022-08-21T14:58:20;35.30;46.50
47805;DHT22;33568;45.286;9.900;2022-08-21T15:00:50;35.30;46.20
47805;DHT22;33568;45.286;9.900;2022-08-21T15:03:17;35.30;46.00
47805;DHT22;33568;45.286;9.900;2022-08-21T15:05:43;35.30;46.20
47805;DHT22;33568;45.286;9.900;2022-08-21T15:08:10;35.30;46.20
47805;DHT22;33568;45.286;9.900;2022-08-21T15:10:36;35.30;46.10
47805;DHT22;33568;45.286;9.900;2022-08-21T15:13:03;35.30;46.10
47805;DHT22;33568;45.286;9.900;2022-08-21T15:15:34;35.30;45.80
47805;DHT22;33568;45.286;9.900;2022-08-21T15:18:02;35.30;46.00
47805;DHT22;33568;45.286;9.900;2022-08-21T15:20:28;35.30;46.70
47805;DHT22;33568;45.286;9.900;2022-08-21T15:22:55;35.40;45.80
47805;DHT22;33568;45.286;9.900;2022-08-21T15:25:22;35.50;45.60
47805;DHT22;33568;45.286;9.900;2022-08-21T15:27:48;35.60;45.50
47805;DHT22;33568;45.286;9.900;2022-08-21T15:30:15;35.70;45.80
47805;DHT22;33568;45.286;9.900;2022-08-21T15:32:42;35.70;45.90
47805;DHT22;33568;45.286;9.900;2022-08-21T15:35:09;35.60;45.80
47805;DHT22;33568;45.286;9.900;2022-08-21T15:37:35;35.50;45.50
47805;DHT22;33568;45.286;9.900;2022-08-21T15:40:02;35.50;45.10
47805;DHT22;33568;45.286;9.900;2022-08-21T15:42:29;35.50;44.90
47805;DHT22;33568;45.286;9.900;2022-08-21T15:44:57;35.50;44.50
47805;DHT22;33568;45.286;9.900;2022-08-21T15:47:31;35.60;44.70
47805;DHT22;33568;45.286;9.900;2022-08-21T15:50:00;35.60;44.30
47805;DHT22;33568;45.286;9.900;2022-08-21T15:52:26;35.60;44.60
47805;DHT22;33568;45.286;9.900;2022-08-21T15:54:53;35.50;44.40
47805;DHT22;33568;45.286;9.900;2022-08-21T15:57:22;35.50;44.50
47805;DHT22;33568;45.286;9.900;2022-08-21T16:00:04;35.60;44.80
47805;DHT22;33568;45.286;9.900;2022-08-21T16:02:43;35.80;44.80
47805;DHT22;33568;45.286;9.900;2022-08-21T16:05:12;36.00;45.00
47805;DHT22;33568;45.286;9.900;2022-08-21T16:07:39;36.00;45.10
47805;DHT22;33568;45.286;9.900;2022-08-21T16:10:07;35.90;45.30
47805;DHT22;33568;45.286;9.900;2022-08-21T16:12:41;35.90;45.90
47805;DHT22;33568;45.286;9.900;2022-08-21T16:15:11;36.00;46.00
47805;DHT22;33568;45.286;9.900;2022-08-21T16:17:39;36.00;46.40
47805;DHT22;33568;45.286;9.900;2022-08-21T16:20:10;36.00;46.20
47805;DHT22;33568;45.286;9.900;2022-08-21T16:22:37;36.10;46.50
47805;DHT22;33568;45.286;9.900;2022-08-21T16:25:05;36.20;46.70
47805;DHT22;33568;45.286;9.900;2022-08-21T16:27:32;36.20;46.60
47805;DHT22;33568;45.286;9.900;2022-08-21T16:29:59;36.30;46.60
47805;DHT22;33568;45.286;9.900;2022-08-21T16:32:27;36.30;46.70
47805;DHT22;33568;45.286;9.900;2022-08-21T16:34:53;36.20;46.80
47805;DHT22;33568;45.286;9.900;2022-08-21T16:37:21;36.00;47.10
47805;DHT22;33568;45.286;9.900;2022-08-21T16:39:47;36.00;47.40
47805;DHT22;33568;45.286;9.900;2022-08-21T16:42:19;36.00;47.60
47805;DHT22;33568;45.286;9.900;2022-08-21T16:44:46;35.80;47.60
47805;DHT22;33568;45.286;9.900;2022-08-21T16:47:13;35.80;48.00
47805;DHT22;33568;45.286;9.900;2022-08-21T16:49:39;35.80;48.00
47805;DHT22;33568;45.286;9.900;2022-08-21T16:52:06;35.80;48.00
47805;DHT22;33568;45.286;9.900;2022-08-21T16:54:32;35.70;48.00
47805;DHT22;33568;45.286;9.900;2022-08-21T16:56:59;35.60;48.10